createdAt,value
2023-01-19T00:01:14.138Z,5.95
2023-01-19T00:03:42.456Z,5.92
2023-01-19T00:06:09.234Z,5.39
2023-01-19T00:08:36.804Z,5.76
2023-01-19T00:11:04.062Z,5.99
2023-01-19T00:13:31.384Z,6.06
2023-01-19T00:15:58.309Z,5.73
2023-01-19T00:18:25.952Z,5.70
2023-01-19T00:20:52.547Z,6.14
2023-01-19T00:23:24.449Z,5.96
2023-01-19T00:25:51.358Z,5.84
2023-01-19T00:28:19.073Z,6.05
2023-01-19T00:30:45.975Z,5.92
2023-01-19T00:33:16.360Z,6.46
2023-01-19T00:35:46.917Z,6.08
2023-01-19T00:38:13.816Z,6.00
2023-01-19T00:40:43.507Z,6.21
2023-01-19T00:43:10.096Z,6.45
2023-01-19T00:45:36.759Z,6.44
2023-01-19T00:48:03.628Z,6.23
2023-01-19T00:50:34.008Z,6.22
2023-01-19T00:53:01.869Z,6.34
2023-01-19T00:55:33.269Z,6.51
2023-01-19T00:58:00.231Z,6.23
2023-01-19T01:00:29.377Z,6.39
2023-01-19T01:02:56.188Z,6.20
2023-01-19T01:05:24.922Z,6.74
2023-01-19T01:07:53.233Z,6.44
2023-01-19T01:10:25.514Z,6.48
2023-01-19T01:12:54.944Z,6.53
2023-01-19T01:15:27.500Z,6.75
2023-01-19T01:17:54.925Z,6.68
2023-01-19T01:20:26.254Z,6.90
2023-01-19T01:22:53.855Z,6.75
2023-01-19T01:25:23.247Z,6.82
2023-01-19T01:27:50.561Z,6.62
2023-01-19T01:30:21.156Z,6.59
2023-01-19T01:32:48.252Z,6.57
2023-01-19T01:35:16.152Z,6.47
2023-01-19T01:37:47.073Z,6.68
2023-01-19T01:40:16.982Z,6.78
2023-01-19T01:42:47.588Z,7.00
2023-01-19T01:45:40.112Z,6.79
2023-01-19T01:48:32.702Z,6.73
2023-01-19T01:51:25.997Z,6.73
2023-01-19T01:54:07.172Z,6.47
2023-01-19T01:56:37.870Z,6.61
2023-01-19T01:59:11.854Z,6.98
2023-01-19T02:01:59.851Z,6.79
2023-01-19T02:04:33.256Z,7.23
2023-01-19T02:07:18.428Z,6.77
2023-01-19T02:10:03.859Z,6.94
2023-01-19T02:12:51.662Z,7.02
2023-01-19T02:15:20.281Z,6.82
2023-01-19T02:17:50.593Z,6.92
2023-01-19T02:20:21.547Z,7.21
2023-01-19T02:22:50.567Z,6.91
2023-01-19T02:25:19.224Z,6.63
2023-01-19T02:27:48.986Z,6.97
2023-01-19T02:30:16.878Z,6.92
2023-01-19T02:32:44.358Z,6.92
2023-01-19T02:35:12.156Z,7.25
2023-01-19T02:37:41.435Z,7.00
2023-01-19T02:40:14.387Z,6.93
2023-01-19T02:42:46.186Z,6.26
2023-01-19T02:45:17.295Z,6.86
2023-01-19T02:47:46.843Z,6.88
2023-01-19T02:50:46.327Z,7.27
2023-01-19T02:53:27.703Z,6.80
2023-01-19T02:56:06.744Z,7.34
2023-01-19T02:58:41.940Z,7.34
2023-01-19T03:01:30.092Z,7.49
2023-01-19T03:04:26.694Z,7.16
2023-01-19T03:07:13.299Z,6.70
2023-01-19T03:09:41.388Z,6.73
2023-01-19T03:12:53.919Z,7.17
2023-01-19T03:15:31.670Z,7.06
2023-01-19T03:18:02.180Z,7.16
2023-01-19T03:20:29.122Z,6.67
2023-01-19T03:23:03.281Z,7.09
2023-01-19T03:25:37.914Z,7.22
2023-01-19T03:28:07.871Z,7.33
2023-01-19T03:30:44.279Z,7.09
2023-01-19T03:33:24.125Z,7.27
2023-01-19T03:36:03.600Z,7.28
2023-01-19T03:38:37.866Z,7.18
2023-01-19T03:41:09.223Z,7.43
2023-01-19T03:43:40.206Z,7.15
2023-01-19T03:46:08.558Z,7.20
2023-01-19T03:48:35.707Z,7.33
2023-01-19T03:51:07.242Z,7.42
2023-01-19T03:53:36.526Z,7.11
2023-01-19T03:56:06.587Z,7.47
2023-01-19T03:58:36.614Z,7.43
2023-01-19T04:01:04.173Z,7.38
2023-01-19T04:03:31.252Z,7.25
2023-01-19T04:05:58.128Z,7.20
2023-01-19T04:08:24.938Z,7.54
2023-01-19T04:10:51.645Z,7.70
2023-01-19T04:13:18.382Z,7.06
2023-01-19T04:15:44.969Z,7.66
2023-01-19T04:18:11.873Z,7.10
2023-01-19T04:20:38.495Z,7.41
2023-01-19T04:23:05.311Z,7.23
2023-01-19T04:25:34.627Z,7.28
2023-01-19T04:28:01.816Z,7.43
2023-01-19T04:30:30.927Z,7.48
2023-01-19T04:32:59.353Z,7.11
2023-01-19T04:35:28.892Z,7.25
2023-01-19T04:37:55.958Z,7.40
2023-01-19T04:40:23.345Z,7.55
2023-01-19T04:42:51.200Z,7.74
2023-01-19T04:45:18.539Z,7.66
2023-01-19T04:47:45.989Z,7.29
2023-01-19T04:50:22.787Z,7.44
2023-01-19T04:52:49.542Z,7.52
2023-01-19T04:55:16.287Z,7.35
2023-01-19T04:57:44.132Z,7.58
2023-01-19T05:00:14.727Z,7.30
2023-01-19T05:02:45.447Z,7.35
2023-01-19T05:05:12.510Z,7.16
2023-01-19T05:07:39.695Z,7.55
2023-01-19T05:10:07.130Z,7.71
2023-01-19T05:12:34.352Z,7.48
2023-01-19T05:15:04.528Z,7.32
2023-01-19T05:17:34.424Z,7.29
2023-01-19T05:20:03.321Z,7.56
2023-01-19T05:22:30.062Z,7.44
2023-01-19T05:24:56.819Z,7.45
2023-01-19T05:27:23.695Z,7.65
2023-01-19T05:29:53.645Z,7.76
2023-01-19T05:32:20.783Z,7.31
2023-01-19T05:34:47.397Z,7.61
2023-01-19T05:37:14.136Z,7.14
2023-01-19T05:39:41.630Z,7.40
2023-01-19T05:42:14.136Z,7.37
2023-01-19T05:44:42.971Z,7.41
2023-01-19T05:47:09.530Z,7.37
2023-01-19T05:49:38.784Z,7.63
2023-01-19T05:52:05.439Z,7.21
2023-01-19T05:54:32.213Z,7.79
2023-01-19T05:57:03.181Z,7.71
2023-01-19T05:59:29.928Z,7.50
2023-01-19T06:01:57.172Z,7.75
2023-01-19T06:04:23.973Z,7.52
2023-01-19T06:06:51.561Z,7.42
2023-01-19T06:09:18.213Z,7.40
2023-01-19T06:11:46.159Z,7.82
2023-01-19T06:14:13.758Z,7.51
2023-01-19T06:16:40.553Z,7.17
2023-01-19T06:19:07.277Z,7.20
2023-01-19T06:21:34.363Z,7.26
2023-01-19T06:24:01.258Z,7.48
2023-01-19T06:26:27.949Z,7.64
2023-01-19T06:28:57.335Z,7.55
2023-01-19T06:31:24.051Z,7.58
2023-01-19T06:33:50.732Z,7.77
2023-01-19T06:36:17.437Z,7.48
2023-01-19T06:38:47.140Z,7.56
2023-01-19T06:41:16.265Z,7.71
2023-01-19T06:43:42.770Z,7.64
2023-01-19T06:46:09.609Z,7.55
2023-01-19T06:48:36.349Z,7.43
2023-01-19T06:51:08.133Z,7.50
2023-01-19T06:53:38.895Z,7.66
2023-01-19T06:56:09.620Z,7.57
2023-01-19T06:58:36.675Z,7.29
2023-01-19T07:01:08.015Z,6.82
2023-01-19T07:03:36.220Z,6.41
2023-01-19T07:06:02.946Z,6.28
2023-01-19T07:08:29.883Z,6.25
2023-01-19T07:11:26.057Z,6.26
2023-01-19T07:13:55.116Z,6.40
2023-01-19T07:16:21.974Z,6.35
2023-01-19T07:18:50.184Z,6.46
2023-01-19T07:21:17.369Z,6.42
2023-01-19T07:23:43.933Z,6.22
2023-01-19T07:26:10.669Z,5.92
2023-01-19T07:28:37.277Z,6.23
2023-01-19T07:31:04.537Z,6.03
2023-01-19T07:33:31.195Z,6.16
2023-01-19T07:35:57.803Z,6.25
2023-01-19T07:38:24.360Z,6.51
2023-01-19T07:40:50.963Z,6.39
2023-01-19T07:43:17.569Z,6.36
2023-01-19T07:45:45.201Z,6.38
2023-01-19T07:48:12.009Z,6.54
2023-01-19T07:50:38.611Z,6.23
2023-01-19T07:53:12.298Z,6.46
2023-01-19T07:55:39.055Z,6.37
2023-01-19T07:58:07.330Z,6.46
2023-01-19T08:00:35.782Z,6.36
2023-01-19T08:03:04.224Z,6.40
2023-01-19T08:05:32.672Z,6.52
2023-01-19T08:08:00.421Z,6.22
2023-01-19T08:10:28.786Z,6.76
2023-01-19T08:12:59.067Z,7.25
2023-01-19T08:15:26.533Z,7.15
2023-01-19T08:17:58.389Z,7.23
2023-01-19T08:20:27.067Z,7.15
2023-01-19T08:23:01.414Z,7.18
2023-01-19T08:25:45.249Z,6.80
2023-01-19T08:28:15.252Z,7.18
2023-01-19T08:30:44.791Z,7.30
2023-01-19T08:33:12.911Z,7.45
2023-01-19T08:35:41.926Z,7.27
2023-01-19T08:38:10.000Z,6.95
2023-01-19T08:40:39.124Z,6.95
2023-01-19T08:43:10.588Z,7.12
2023-01-19T08:45:48.091Z,6.80
2023-01-19T08:48:22.203Z,7.02
2023-01-19T08:50:52.870Z,7.04
2023-01-19T08:53:23.693Z,7.42
2023-01-19T08:55:57.174Z,7.32
2023-01-19T08:58:24.727Z,7.18
2023-01-19T09:00:52.798Z,7.22
2023-01-19T09:03:23.186Z,7.16
2023-01-19T09:06:01.623Z,7.29
2023-01-19T09:08:28.459Z,7.09
2023-01-19T09:10:55.475Z,7.20
2023-01-19T09:13:29.554Z,7.13
2023-01-19T09:16:02.643Z,7.25
2023-01-19T09:18:29.753Z,6.75
2023-01-19T09:20:57.999Z,7.13
2023-01-19T09:23:25.402Z,7.40
2023-01-19T09:25:59.411Z,7.33
2023-01-19T09:28:27.011Z,7.62
2023-01-19T09:30:53.858Z,7.20
2023-01-19T09:33:21.349Z,7.25
2023-01-19T09:35:52.067Z,7.26
2023-01-19T09:38:20.668Z,7.56
2023-01-19T09:40:52.158Z,7.26
2023-01-19T09:43:27.906Z,7.24
2023-01-19T09:46:15.075Z,7.30
2023-01-19T09:48:56.822Z,7.44
2023-01-19T09:51:28.189Z,7.49
2023-01-19T09:54:04.332Z,7.47
2023-01-19T09:56:32.322Z,6.97
2023-01-19T09:59:00.476Z,7.31
2023-01-19T10:01:41.724Z,7.11
2023-01-19T10:04:31.954Z,7.36
2023-01-19T10:07:13.978Z,7.23
2023-01-19T10:10:13.812Z,7.19
2023-01-19T10:13:14.179Z,7.34
2023-01-19T10:16:01.030Z,7.41
2023-01-19T10:18:51.676Z,7.66
2023-01-19T10:21:24.021Z,7.42
2023-01-19T10:23:52.631Z,7.45
2023-01-19T10:26:29.641Z,7.45
2023-01-19T10:29:03.125Z,7.57
2023-01-19T10:31:30.136Z,7.47
2023-01-19T10:33:57.150Z,7.25
2023-01-19T10:36:36.928Z,7.33
2023-01-19T10:39:05.257Z,7.27
2023-01-19T10:41:51.490Z,6.85
2023-01-19T10:44:36.597Z,7.53
2023-01-19T10:47:06.398Z,7.54
2023-01-19T10:49:42.882Z,7.85
2023-01-19T10:52:22.877Z,7.84
2023-01-19T10:54:49.738Z,7.81
2023-01-19T10:57:25.696Z,8.00
2023-01-19T10:59:52.432Z,7.67
2023-01-19T11:02:21.524Z,7.68
2023-01-19T11:04:51.607Z,8.27
2023-01-19T11:07:18.207Z,7.82
2023-01-19T11:09:45.046Z,7.86
2023-01-19T11:12:22.988Z,7.61
2023-01-19T11:14:51.343Z,8.18
2023-01-19T11:17:26.067Z,7.63
2023-01-19T11:19:56.252Z,7.62
2023-01-19T11:22:27.923Z,7.72
2023-01-19T11:25:03.201Z,7.88
2023-01-19T11:27:33.428Z,8.24
2023-01-19T11:30:09.900Z,7.91
2023-01-19T11:32:37.228Z,8.08
2023-01-19T11:35:30.042Z,8.18
2023-01-19T11:38:24.699Z,7.92
2023-01-19T11:40:54.981Z,7.79
2023-01-19T11:43:24.278Z,7.71
2023-01-19T11:45:51.791Z,7.84
2023-01-19T11:48:33.429Z,7.95
2023-01-19T11:51:04.435Z,7.74
2023-01-19T11:53:34.193Z,7.79
2023-01-19T11:56:15.075Z,7.95
2023-01-19T11:58:46.958Z,7.63
2023-01-19T12:01:23.163Z,7.97
2023-01-19T12:03:55.995Z,7.66
2023-01-19T12:06:31.936Z,7.83
2023-01-19T12:09:18.289Z,7.71
2023-01-19T12:11:50.616Z,7.95
2023-01-19T12:14:23.620Z,7.82
2023-01-19T12:16:56.242Z,7.72
2023-01-19T12:19:29.479Z,8.02
2023-01-19T12:21:56.516Z,7.86
2023-01-19T12:24:59.793Z,7.75
2023-01-19T12:27:38.546Z,8.19
2023-01-19T12:30:10.538Z,8.12
2023-01-19T12:32:37.506Z,8.01
2023-01-19T12:35:49.426Z,8.27
2023-01-19T12:38:34.637Z,8.46
2023-01-19T12:41:27.481Z,8.23
2023-01-19T12:44:12.347Z,8.47
2023-01-19T12:46:41.444Z,8.52
2023-01-19T12:49:11.149Z,8.67
2023-01-19T12:51:38.653Z,8.57
2023-01-19T12:54:16.732Z,8.52
2023-01-19T12:56:43.589Z,8.36
2023-01-19T12:59:29.364Z,8.38
2023-01-19T13:02:17.901Z,8.21
2023-01-19T13:05:15.305Z,8.59
2023-01-19T13:08:09.567Z,8.53
2023-01-19T13:11:22.477Z,8.45
2023-01-19T13:13:49.880Z,8.58
2023-01-19T13:16:19.873Z,8.51
2023-01-19T13:18:55.547Z,8.38
2023-01-19T13:21:32.713Z,8.29
2023-01-19T13:24:02.287Z,8.39
2023-01-19T13:26:31.012Z,8.31
2023-01-19T13:29:08.141Z,8.31
2023-01-19T13:31:39.754Z,8.26
2023-01-19T13:34:14.138Z,8.23
2023-01-19T13:36:45.159Z,8.48
2023-01-19T13:39:21.758Z,7.93
2023-01-19T13:41:52.722Z,8.18
2023-01-19T13:44:27.484Z,8.04
2023-01-19T13:46:56.410Z,8.05
2023-01-19T13:49:39.085Z,8.00
2023-01-19T13:52:19.745Z,8.09
2023-01-19T13:54:55.898Z,8.00
2023-01-19T13:57:28.587Z,8.14
2023-01-19T14:00:11.894Z,8.41
2023-01-19T14:02:39.853Z,8.38
2023-01-19T14:05:23.397Z,8.50
2023-01-19T14:08:05.442Z,8.66
2023-01-19T14:10:33.436Z,8.70
2023-01-19T14:13:01.164Z,8.22
2023-01-19T14:15:29.695Z,8.55
2023-01-19T14:18:18.918Z,8.25
2023-01-19T14:20:52.475Z,8.13
2023-01-19T14:23:37.706Z,8.35
2023-01-19T14:26:04.549Z,8.47
2023-01-19T14:28:42.837Z,8.50
2023-01-19T14:31:24.302Z,8.43
2023-01-19T14:33:53.355Z,8.73
2023-01-19T14:36:26.539Z,8.69
2023-01-19T14:38:54.608Z,8.37
2023-01-19T14:41:26.393Z,8.44
2023-01-19T14:43:55.979Z,8.85
2023-01-19T14:46:24.651Z,8.41
2023-01-19T14:48:56.031Z,8.07
2023-01-19T14:51:24.417Z,8.41
2023-01-19T14:53:54.957Z,8.80
2023-01-19T14:56:40.392Z,8.58
2023-01-19T14:59:09.867Z,8.43
2023-01-19T15:01:37.198Z,8.17
2023-01-19T15:04:03.856Z,8.32
2023-01-19T15:06:31.548Z,8.35
2023-01-19T15:08:58.675Z,8.70
2023-01-19T15:11:31.075Z,8.39
2023-01-19T15:13:59.030Z,8.51
2023-01-19T15:16:27.481Z,8.47
2023-01-19T15:18:54.173Z,8.45
2023-01-19T15:21:26.828Z,8.10
2023-01-19T15:23:54.684Z,8.12
2023-01-19T15:26:24.506Z,8.30
2023-01-19T15:28:52.042Z,8.64
2023-01-19T15:31:21.589Z,8.42
2023-01-19T15:33:48.484Z,8.31
2023-01-19T15:36:19.389Z,8.23
2023-01-19T15:38:47.163Z,7.80
2023-01-19T15:41:23.791Z,8.08
2023-01-19T15:43:50.929Z,7.67
2023-01-19T15:46:22.307Z,7.70
2023-01-19T15:48:50.465Z,8.33
2023-01-19T15:51:19.484Z,8.18
2023-01-19T15:53:46.523Z,7.74
2023-01-19T15:56:40.035Z,8.32
2023-01-19T15:59:09.984Z,8.01
2023-01-19T16:01:36.955Z,8.08
2023-01-19T16:04:06.264Z,8.00
2023-01-19T16:06:33.692Z,7.95
2023-01-19T16:09:01.551Z,7.61
2023-01-19T16:11:33.453Z,7.39
2023-01-19T16:14:00.919Z,7.81
2023-01-19T16:16:28.229Z,7.73
2023-01-19T16:18:56.042Z,7.83
2023-01-19T16:21:23.775Z,7.93
2023-01-19T16:23:50.664Z,7.46
2023-01-19T16:26:26.825Z,7.11
2023-01-19T16:28:57.274Z,7.52
2023-01-19T16:31:27.624Z,7.37
2023-01-19T16:33:54.795Z,7.35
2023-01-19T16:36:26.774Z,7.62
2023-01-19T16:38:54.488Z,7.76
2023-01-19T16:41:21.489Z,7.51
2023-01-19T16:43:54.424Z,7.43
2023-01-19T16:46:26.222Z,6.98
2023-01-19T16:48:52.979Z,6.93
2023-01-19T16:51:20.065Z,6.77
2023-01-19T16:53:49.383Z,7.18
2023-01-19T16:56:16.920Z,7.70
2023-01-19T16:58:45.577Z,7.40
2023-01-19T17:01:20.084Z,7.20
2023-01-19T17:03:47.907Z,7.01
2023-01-19T17:06:18.094Z,7.06
2023-01-19T17:08:44.903Z,6.69
2023-01-19T17:11:22.584Z,6.50
2023-01-19T17:13:54.469Z,6.59
2023-01-19T17:16:22.277Z,6.29
2023-01-19T17:18:52.221Z,6.39
2023-01-19T17:21:20.474Z,6.51
2023-01-19T17:23:51.874Z,6.60
2023-01-19T17:26:22.181Z,6.50
2023-01-19T17:28:48.958Z,6.31
2023-01-19T17:31:24.364Z,6.18
2023-01-19T17:33:51.462Z,6.19
2023-01-19T17:36:22.596Z,6.16
2023-01-19T17:38:50.464Z,6.11
2023-01-19T17:41:24.870Z,6.25
2023-01-19T17:43:52.258Z,6.23
2023-01-19T17:46:24.154Z,6.01
2023-01-19T17:48:54.125Z,5.88
2023-01-19T17:51:22.996Z,5.81
2023-01-19T17:53:51.165Z,6.00
2023-01-19T17:56:22.081Z,6.11
2023-01-19T17:58:49.969Z,6.07
2023-01-19T18:01:22.687Z,5.80
2023-01-19T18:03:49.363Z,5.76
2023-01-19T18:06:16.606Z,5.72
2023-01-19T18:08:46.173Z,5.59
2023-01-19T18:11:14.124Z,5.94
2023-01-19T18:13:43.879Z,5.70
2023-01-19T18:16:13.992Z,5.58
2023-01-19T18:18:41.359Z,5.79
2023-01-19T18:21:12.761Z,5.46
2023-01-19T18:23:40.277Z,5.47
2023-01-19T18:26:13.073Z,5.27
2023-01-19T18:28:57.000Z,5.61
2023-01-19T18:31:24.663Z,5.40
2023-01-19T18:33:53.262Z,5.60
2023-01-19T18:36:20.382Z,5.35
2023-01-19T18:38:47.711Z,5.59
2023-01-19T18:41:19.798Z,5.36
2023-01-19T18:43:47.890Z,5.53
2023-01-19T18:46:15.128Z,5.48
2023-01-19T18:48:41.808Z,5.71
2023-01-19T18:51:13.544Z,6.08
2023-01-19T18:53:41.201Z,5.92
2023-01-19T18:56:08.763Z,5.95
2023-01-19T18:58:38.193Z,6.45
2023-01-19T19:01:25.714Z,6.09
2023-01-19T19:03:55.830Z,6.11
2023-01-19T19:06:24.199Z,6.22
2023-01-19T19:08:52.470Z,6.48
2023-01-19T19:11:21.332Z,6.40
2023-01-19T19:14:00.384Z,6.07
2023-01-19T19:16:28.542Z,6.40
2023-01-19T19:18:55.493Z,6.11
2023-01-19T19:21:25.159Z,6.27
2023-01-19T19:23:54.056Z,6.03
2023-01-19T19:26:21.392Z,6.43
2023-01-19T19:28:49.831Z,6.51
2023-01-19T19:31:24.910Z,6.21
2023-01-19T19:33:52.148Z,6.35
2023-01-19T19:36:19.966Z,6.32
2023-01-19T19:38:47.607Z,6.60
2023-01-19T19:41:17.437Z,6.92
2023-01-19T19:43:46.787Z,6.67
2023-01-19T19:46:19.949Z,6.68
2023-01-19T19:48:48.334Z,6.74
2023-01-19T19:51:19.269Z,6.44
2023-01-19T19:53:48.399Z,6.74
2023-01-19T19:56:19.753Z,7.01
2023-01-19T19:58:47.280Z,6.69
2023-01-19T20:01:16.463Z,6.67
2023-01-19T20:03:45.591Z,6.38
2023-01-19T20:06:15.439Z,6.64
2023-01-19T20:08:47.210Z,6.76
2023-01-19T20:11:17.214Z,6.24
2023-01-19T20:13:44.751Z,6.49
2023-01-19T20:16:13.899Z,6.54
2023-01-19T20:18:42.478Z,6.64
2023-01-19T20:21:21.410Z,6.74
2023-01-19T20:23:50.607Z,6.52
2023-01-19T20:26:20.009Z,6.73
2023-01-19T20:28:47.053Z,6.65
2023-01-19T20:31:15.845Z,6.82
2023-01-19T20:33:47.402Z,6.72
2023-01-19T20:36:18.005Z,6.22
2023-01-19T20:38:45.229Z,6.26
2023-01-19T20:41:12.789Z,6.21
2023-01-19T20:43:40.080Z,6.30
2023-01-19T20:46:07.271Z,6.85
2023-01-19T20:48:34.010Z,6.48
2023-01-19T20:51:05.539Z,6.55
2023-01-19T20:53:32.823Z,6.61
2023-01-19T20:56:06.094Z,6.70
2023-01-19T20:58:33.336Z,6.42
2023-01-19T21:00:59.987Z,6.64
2023-01-19T21:03:26.571Z,6.24
2023-01-19T21:05:53.163Z,6.13
2023-01-19T21:08:19.921Z,5.75
2023-01-19T21:10:46.583Z,6.22
2023-01-19T21:13:13.202Z,5.94
2023-01-19T21:15:39.855Z,6.31
2023-01-19T21:18:06.394Z,5.85
2023-01-19T21:20:33.085Z,6.01
2023-01-19T21:22:59.688Z,6.22
2023-01-19T21:25:26.260Z,6.28
2023-01-19T21:27:52.883Z,6.11
2023-01-19T21:30:19.722Z,6.74
2023-01-19T21:32:46.341Z,6.41
2023-01-19T21:35:13.408Z,6.46
2023-01-19T21:37:40.239Z,6.53
2023-01-19T21:40:07.760Z,6.32
2023-01-19T21:42:34.369Z,6.53
2023-01-19T21:45:01.006Z,6.67
2023-01-19T21:47:27.559Z,6.27
2023-01-19T21:49:54.359Z,6.66
2023-01-19T21:52:20.941Z,6.72
2023-01-19T21:54:47.550Z,6.75
2023-01-19T21:57:15.201Z,6.69
2023-01-19T21:59:41.831Z,6.38
2023-01-19T22:02:11.654Z,6.63
2023-01-19T22:04:39.273Z,6.31
2023-01-19T22:07:06.370Z,6.21
2023-01-19T22:09:36.419Z,6.69
2023-01-19T22:12:03.212Z,7.11
2023-01-19T22:14:29.880Z,6.86
2023-01-19T22:16:56.520Z,6.66
2023-01-19T22:19:25.497Z,6.42
2023-01-19T22:21:52.159Z,6.35
2023-01-19T22:24:19.929Z,6.12
2023-01-19T22:26:46.484Z,6.19
2023-01-19T22:29:13.329Z,5.84
2023-01-19T22:31:40.500Z,5.79
2023-01-19T22:34:10.316Z,5.96
2023-01-19T22:36:37.765Z,6.17
2023-01-19T22:39:06.851Z,6.48
2023-01-19T22:41:33.466Z,6.02
2023-01-19T22:44:03.522Z,6.23
2023-01-19T22:46:32.474Z,5.94
2023-01-19T22:49:00.074Z,6.17
2023-01-19T22:51:28.664Z,5.96
2023-01-19T22:53:55.662Z,6.37
2023-01-19T22:56:27.952Z,6.26
2023-01-19T22:58:55.721Z,6.17
2023-01-19T23:01:27.585Z,6.17
2023-01-19T23:03:55.939Z,6.07
2023-01-19T23:06:34.459Z,5.76
2023-01-19T23:09:04.537Z,6.28
2023-01-19T23:11:39.386Z,6.37
2023-01-19T23:14:09.512Z,6.12
2023-01-19T23:16:36.070Z,5.41
2023-01-19T23:19:03.525Z,5.48
2023-01-19T23:21:31.515Z,5.81
2023-01-19T23:24:01.141Z,5.73
2023-01-19T23:26:30.736Z,5.41
2023-01-19T23:29:01.509Z,5.31
2023-01-19T23:31:31.169Z,5.51
2023-01-19T23:34:00.621Z,5.19
2023-01-19T23:36:29.514Z,5.31
2023-01-19T23:38:58.782Z,5.30
2023-01-19T23:41:26.435Z,5.34
2023-01-19T23:43:53.034Z,5.34
2023-01-19T23:46:20.156Z,5.28
2023-01-19T23:48:47.442Z,6.05
2023-01-19T23:51:17.171Z,6.01
2023-01-19T23:53:43.822Z,5.68
2023-01-19T23:56:10.381Z,5.97
2023-01-19T23:58:37.844Z,6.02
